createdAt,value
2022-10-25T00:01:24.720Z,1.00
2022-10-25T00:03:56.541Z,1.00
2022-10-25T00:06:26.208Z,1.00
2022-10-25T00:08:55.729Z,1.00
2022-10-25T00:11:28.127Z,1.00
2022-10-25T00:14:00.042Z,1.00
2022-10-25T00:16:31.277Z,1.00
2022-10-25T00:19:00.676Z,1.00
2022-10-25T00:21:30.169Z,1.00
2022-10-25T00:24:00.911Z,1.00
2022-10-25T00:26:29.075Z,1.00
2022-10-25T00:28:57.658Z,1.00
2022-10-25T00:31:27.021Z,1.00
2022-10-25T00:33:55.162Z,1.00
2022-10-25T00:36:26.426Z,1.00
2022-10-25T00:38:57.153Z,1.00
2022-10-25T00:41:31.227Z,1.00
2022-10-25T00:44:58.853Z,1.00
2022-10-25T00:47:49.247Z,1.00
2022-10-25T00:50:30.533Z,1.00
2022-10-25T00:53:06.889Z,1.00
2022-10-25T00:58:12.127Z,1.00
2022-10-25T01:00:42.002Z,1.00
2022-10-25T01:05:41.466Z,1.00
2022-10-25T01:08:13.238Z,1.00
2022-10-25T01:10:41.801Z,1.00
2022-10-25T01:13:11.560Z,1.00
2022-10-25T01:15:54.101Z,1.00
2022-10-25T01:18:32.906Z,1.00
2022-10-25T01:21:44.838Z,1.00
2022-10-25T01:25:03.920Z,1.00
2022-10-25T01:28:10.391Z,1.00
2022-10-25T01:31:26.128Z,1.00
2022-10-25T01:34:00.392Z,1.00
2022-10-25T01:36:43.735Z,1.00
2022-10-25T01:39:19.772Z,1.00
2022-10-25T01:42:06.019Z,1.00
2022-10-25T01:44:46.684Z,1.00
2022-10-25T01:47:22.127Z,1.00
2022-10-25T01:49:58.249Z,1.00
2022-10-25T01:52:27.333Z,1.00
2022-10-25T01:54:57.965Z,1.00
2022-10-25T01:57:59.111Z,1.00
2022-10-25T02:00:28.227Z,1.00
2022-10-25T02:03:11.635Z,1.00
2022-10-25T02:05:55.680Z,1.00
2022-10-25T02:08:37.177Z,1.00
2022-10-25T02:11:16.420Z,1.00
2022-10-25T02:14:00.095Z,1.00
2022-10-25T02:16:33.226Z,1.00
2022-10-25T02:19:06.940Z,1.00
2022-10-25T02:21:37.987Z,1.00
2022-10-25T02:24:15.707Z,1.00
2022-10-25T02:29:26.241Z,1.00
2022-10-25T02:31:55.928Z,1.00
2022-10-25T02:34:26.728Z,1.00
2022-10-25T02:39:29.173Z,1.00
2022-10-25T02:42:02.317Z,1.00
2022-10-25T02:44:31.804Z,1.00
2022-10-25T02:49:32.366Z,1.00
2022-10-25T02:52:01.530Z,1.00
2022-10-25T02:54:29.636Z,1.00
2022-10-25T02:56:57.891Z,1.00
2022-10-25T02:59:26.112Z,1.00
2022-10-25T03:01:54.487Z,1.00
2022-10-25T03:04:25.288Z,1.00
2022-10-25T03:06:57.481Z,1.00
2022-10-25T03:14:25.512Z,1.00
2022-10-25T03:16:54.801Z,1.00
2022-10-25T03:21:52.889Z,1.00
2022-10-25T03:24:23.659Z,1.00
2022-10-25T03:26:52.996Z,1.00
2022-10-25T03:29:23.590Z,1.00
2022-10-25T03:31:52.897Z,1.00
2022-10-25T03:36:52.199Z,1.00
2022-10-25T03:39:21.707Z,1.00
2022-10-25T03:41:50.436Z,1.00
2022-10-25T03:44:18.683Z,1.00
2022-10-25T03:46:46.807Z,1.00
2022-10-25T03:49:17.368Z,1.00
2022-10-25T03:51:45.726Z,1.00
2022-10-25T03:54:15.095Z,1.00
2022-10-25T03:56:44.599Z,1.00
2022-10-25T03:59:15.136Z,1.00
2022-10-25T04:01:44.609Z,1.00
2022-10-25T04:04:15.271Z,1.00
2022-10-25T04:06:43.385Z,1.00
2022-10-25T04:11:43.854Z,1.00
2022-10-25T04:14:14.781Z,1.00
2022-10-25T04:19:12.595Z,1.00
2022-10-25T04:24:11.812Z,1.00
2022-10-25T04:26:40.197Z,1.00
2022-10-25T04:29:13.467Z,1.00
2022-10-25T04:31:41.430Z,1.00
2022-10-25T04:34:11.951Z,1.00
2022-10-25T04:36:41.341Z,1.00
2022-10-25T04:39:12.146Z,1.00
2022-10-25T04:41:40.416Z,1.00
2022-10-25T04:44:11.530Z,1.00
2022-10-25T04:46:43.977Z,1.00
2022-10-25T04:49:16.030Z,1.00
2022-10-25T04:51:45.482Z,1.00
2022-10-25T04:54:15.264Z,1.00
2022-10-25T04:56:44.656Z,99.90
2022-10-25T04:59:15.619Z,99.90
2022-10-25T05:01:43.860Z,99.90
2022-10-25T05:06:42.058Z,99.90
2022-10-25T05:11:41.411Z,99.90
2022-10-25T05:14:10.788Z,1.00
2022-10-25T05:16:41.491Z,1.00
2022-10-25T05:24:08.398Z,99.90
2022-10-25T05:29:10.155Z,99.90
2022-10-25T05:31:41.002Z,99.90
2022-10-25T05:34:12.256Z,99.90
2022-10-25T05:36:40.399Z,99.90
2022-10-25T05:39:09.762Z,99.90
2022-10-25T05:41:40.363Z,99.90
2022-10-25T05:46:38.548Z,99.90
2022-10-25T05:49:08.010Z,99.90
2022-10-25T05:51:39.410Z,99.90
2022-10-25T05:54:11.656Z,99.90
2022-10-25T05:56:40.956Z,99.90
2022-10-25T05:59:13.662Z,99.90
2022-10-25T06:01:45.528Z,99.90
2022-10-25T06:04:15.985Z,99.90
2022-10-25T06:06:48.409Z,99.90
2022-10-25T06:09:20.377Z,99.90
2022-10-25T06:11:48.485Z,99.90
2022-10-25T06:14:17.849Z,99.90
2022-10-25T06:21:48.048Z,99.90
2022-10-25T06:24:17.495Z,99.90
2022-10-25T06:26:46.858Z,99.90
2022-10-25T06:29:17.432Z,99.90
2022-10-25T06:39:16.456Z,99.90
2022-10-25T06:41:45.804Z,99.90
2022-10-25T06:44:15.174Z,1.00
2022-10-25T06:47:15.472Z,1.00
2022-10-25T06:52:03.835Z,99.90
2022-10-25T06:54:31.979Z,1.00
2022-10-25T06:57:01.303Z,1.00
2022-10-25T07:07:04.452Z,1.00
2022-10-25T07:12:02.358Z,1.00
2022-10-25T07:14:32.941Z,1.00
2022-10-25T07:17:02.325Z,1.00
2022-10-25T07:19:31.761Z,1.00
2022-10-25T07:22:01.132Z,1.00
2022-10-25T07:24:32.418Z,1.00
2022-10-25T07:27:01.764Z,1.00
2022-10-25T07:29:29.946Z,1.00
2022-10-25T07:34:29.189Z,99.90
2022-10-25T07:39:27.220Z,99.90
2022-10-25T07:41:58.024Z,99.90
2022-10-25T07:44:28.606Z,97.70
2022-10-25T07:46:56.750Z,39.50
2022-10-25T07:49:27.379Z,1.00
2022-10-25T07:51:56.737Z,1.00
2022-10-25T07:54:27.393Z,1.00
2022-10-25T07:56:58.139Z,1.00
2022-10-25T08:01:57.239Z,1.00
2022-10-25T08:09:38.208Z,28.70
2022-10-25T08:12:09.669Z,30.20
2022-10-25T08:14:41.464Z,45.20
2022-10-25T08:17:12.833Z,65.50
2022-10-25T08:19:46.426Z,81.10
2022-10-25T08:22:19.812Z,91.10
2022-10-25T08:24:50.466Z,91.50
2022-10-25T08:27:21.145Z,85.50
2022-10-25T08:29:50.511Z,87.10
2022-10-25T08:32:19.987Z,91.50
2022-10-25T08:34:50.604Z,93.50
2022-10-25T08:37:18.765Z,93.30
2022-10-25T08:42:37.143Z,11.40
2022-10-25T08:45:17.376Z,58.40
2022-10-25T08:47:51.112Z,1.00
2022-10-25T08:50:25.548Z,1.00
2022-10-25T08:52:58.967Z,1.00
2022-10-25T08:55:38.879Z,7.00
2022-10-25T08:58:16.657Z,14.10
2022-10-25T09:00:50.069Z,11.50
2022-10-25T09:03:25.157Z,1.00
2022-10-25T09:06:11.779Z,1.00
2022-10-25T09:09:06.967Z,1.00
2022-10-25T09:11:53.689Z,8.00
2022-10-25T09:14:35.039Z,1.00
2022-10-25T09:17:17.416Z,1.00
2022-10-25T09:20:04.539Z,1.00
2022-10-25T09:22:45.270Z,1.00
2022-10-25T09:25:25.338Z,1.00
2022-10-25T09:28:01.188Z,1.00
2022-10-25T09:30:39.112Z,1.00
2022-10-25T09:33:13.312Z,1.00
2022-10-25T09:35:49.650Z,1.00
2022-10-25T09:38:24.292Z,1.00
2022-10-25T09:41:02.131Z,1.00
2022-10-25T09:43:40.629Z,1.00
2022-10-25T09:46:19.050Z,1.00
2022-10-25T09:48:58.258Z,1.00
2022-10-25T09:51:37.213Z,1.00
2022-10-25T09:54:18.010Z,1.00
2022-10-25T09:56:47.343Z,1.00
2022-10-25T09:59:17.628Z,1.00
2022-10-25T10:01:48.592Z,1.00
2022-10-25T10:04:27.707Z,1.00
2022-10-25T10:07:02.771Z,1.00
2022-10-25T10:09:33.514Z,1.00
2022-10-25T10:12:05.584Z,1.00
2022-10-25T10:14:40.565Z,1.00
2022-10-25T10:17:18.866Z,1.00
2022-10-25T10:20:13.895Z,1.00
2022-10-25T10:22:52.348Z,1.00
2022-10-25T10:25:26.626Z,1.00
2022-10-25T10:27:58.607Z,1.00
2022-10-25T10:30:29.823Z,1.00
2022-10-25T10:33:02.672Z,1.00
2022-10-25T10:35:35.612Z,1.00
2022-10-25T10:38:27.362Z,1.00
2022-10-25T10:41:15.457Z,1.00
2022-10-25T10:43:46.037Z,1.00
2022-10-25T10:46:19.886Z,1.00
2022-10-25T10:48:57.018Z,1.00
2022-10-25T10:51:44.077Z,1.00
2022-10-25T10:54:26.629Z,1.00
2022-10-25T10:56:59.071Z,1.00
2022-10-25T10:59:39.084Z,1.00
2022-10-25T11:02:25.791Z,1.00
2022-10-25T11:04:58.005Z,1.00
2022-10-25T11:07:32.508Z,1.00
2022-10-25T11:10:22.103Z,1.00
2022-10-25T11:13:10.999Z,1.00
2022-10-25T11:16:27.230Z,1.00
2022-10-25T11:19:29.265Z,1.00
2022-10-25T11:22:33.150Z,1.00
2022-10-25T11:25:19.767Z,1.00
2022-10-25T11:28:07.134Z,1.00
2022-10-25T11:30:43.543Z,1.00
2022-10-25T11:33:44.210Z,1.00
2022-10-25T11:36:32.293Z,1.00
2022-10-25T11:39:17.009Z,1.00
2022-10-25T11:41:49.195Z,1.00
2022-10-25T11:44:45.801Z,1.00
2022-10-25T11:47:27.241Z,1.00
2022-10-25T11:50:06.677Z,1.00
2022-10-25T11:53:03.653Z,1.00
2022-10-25T11:55:41.168Z,16.30
2022-10-25T11:58:27.399Z,58.40
2022-10-25T12:01:07.979Z,99.90
2022-10-25T12:03:56.724Z,85.90
2022-10-25T12:06:33.810Z,1.00
2022-10-25T12:09:10.744Z,1.00
2022-10-25T12:11:47.441Z,1.00
2022-10-25T12:14:24.208Z,1.00
2022-10-25T12:19:29.431Z,1.00
2022-10-25T12:22:02.367Z,1.00
2022-10-25T12:24:37.772Z,1.00
2022-10-25T12:27:10.105Z,1.00
2022-10-25T12:29:44.834Z,1.00
2022-10-25T12:32:20.182Z,1.00
2022-10-25T12:34:54.011Z,1.00
2022-10-25T12:37:31.427Z,1.00
2022-10-25T12:40:02.621Z,1.00
2022-10-25T12:42:39.621Z,1.00
2022-10-25T12:45:59.000Z,1.00
2022-10-25T12:49:15.526Z,1.00
2022-10-25T12:52:10.364Z,1.00
2022-10-25T12:55:15.763Z,1.00
2022-10-25T12:58:00.201Z,1.00
2022-10-25T13:00:37.101Z,1.00
2022-10-25T13:03:50.664Z,1.00
2022-10-25T13:06:36.780Z,1.00
2022-10-25T13:09:10.959Z,1.00
2022-10-25T13:11:43.606Z,1.00
2022-10-25T13:14:28.004Z,1.00
2022-10-25T13:17:45.683Z,1.00
2022-10-25T13:20:50.165Z,1.00
2022-10-25T13:23:59.910Z,1.00
2022-10-25T13:27:20.891Z,1.00
2022-10-25T13:30:32.644Z,1.00
2022-10-25T13:33:34.655Z,1.00
2022-10-25T13:36:05.791Z,1.00
2022-10-25T13:38:39.897Z,1.00
2022-10-25T13:41:17.415Z,1.00
2022-10-25T13:44:01.793Z,1.00
2022-10-25T13:46:38.706Z,1.00
2022-10-25T13:49:35.203Z,1.00
2022-10-25T13:52:09.143Z,1.00
2022-10-25T13:54:50.595Z,1.00
2022-10-25T13:57:48.598Z,1.00
2022-10-25T14:00:52.849Z,1.00
2022-10-25T14:03:35.857Z,1.00
2022-10-25T14:06:18.310Z,1.00
2022-10-25T14:09:11.264Z,1.00
2022-10-25T14:11:48.487Z,1.00
2022-10-25T14:14:29.612Z,1.00
2022-10-25T14:17:15.581Z,1.00
2022-10-25T14:19:50.508Z,1.00
2022-10-25T14:22:32.914Z,1.00
2022-10-25T14:25:09.723Z,1.00
2022-10-25T14:27:38.748Z,1.00
2022-10-25T14:30:25.921Z,1.00
2022-10-25T14:32:59.725Z,1.00
2022-10-25T14:35:35.711Z,1.00
2022-10-25T14:38:16.574Z,1.00
2022-10-25T14:40:54.517Z,1.00
2022-10-25T14:43:30.189Z,1.00
2022-10-25T14:46:03.394Z,1.00
2022-10-25T14:48:33.997Z,1.00
2022-10-25T14:51:08.591Z,1.00
2022-10-25T14:53:47.805Z,1.00
2022-10-25T14:56:23.716Z,1.00
2022-10-25T14:58:53.826Z,1.00
2022-10-25T15:01:24.329Z,1.00
2022-10-25T15:03:57.103Z,1.00
2022-10-25T15:06:30.020Z,1.00
2022-10-25T15:09:30.086Z,1.00
2022-10-25T15:12:16.878Z,1.00
2022-10-25T15:14:48.255Z,1.00
2022-10-25T15:17:26.015Z,1.00
2022-10-25T15:20:09.310Z,1.00
2022-10-25T15:22:51.114Z,1.00
2022-10-25T15:25:32.576Z,1.00
2022-10-25T15:28:12.020Z,1.00
2022-10-25T15:30:46.250Z,1.00
2022-10-25T15:33:18.868Z,1.00
2022-10-25T15:35:51.996Z,1.00
2022-10-25T15:38:21.539Z,1.00
2022-10-25T15:40:52.365Z,1.00
2022-10-25T15:43:20.640Z,1.00
2022-10-25T15:45:51.406Z,1.00
2022-10-25T15:48:24.731Z,1.00
2022-10-25T15:50:55.698Z,1.00
2022-10-25T15:53:26.632Z,1.00
2022-10-25T15:55:57.158Z,1.00
2022-10-25T16:00:57.822Z,1.00
2022-10-25T16:03:27.233Z,1.00
2022-10-25T16:05:56.705Z,1.00
2022-10-25T16:08:26.364Z,1.00
2022-10-25T16:10:56.214Z,1.00
2022-10-25T16:13:30.699Z,1.00
2022-10-25T16:16:04.699Z,1.00
2022-10-25T16:18:36.228Z,1.00
2022-10-25T16:21:06.033Z,1.00
2022-10-25T16:23:36.741Z,1.00
2022-10-25T16:26:06.613Z,1.00
2022-10-25T16:31:05.761Z,14.00
2022-10-25T16:36:03.705Z,49.00
2022-10-25T16:38:31.862Z,67.50
2022-10-25T16:41:02.582Z,1.00
2022-10-25T16:43:30.751Z,93.10
2022-10-25T16:48:31.123Z,99.40
2022-10-25T16:51:00.452Z,99.90
2022-10-25T16:53:29.741Z,99.90
2022-10-25T16:58:30.245Z,99.90
2022-10-25T17:01:00.818Z,99.90
2022-10-25T17:03:28.986Z,99.90
2022-10-25T17:08:28.734Z,99.90
2022-10-25T17:13:28.077Z,99.90
2022-10-25T17:15:57.589Z,99.90
2022-10-25T17:18:27.028Z,99.90
2022-10-25T17:23:26.744Z,99.90
2022-10-25T17:26:00.226Z,99.90
2022-10-25T17:28:32.387Z,99.90
2022-10-25T17:31:00.673Z,99.90
2022-10-25T17:33:30.012Z,99.90
2022-10-25T17:35:59.376Z,99.90
2022-10-25T17:43:25.682Z,99.90
2022-10-25T17:48:30.960Z,99.90
2022-10-25T17:51:04.240Z,99.90
2022-10-25T17:53:32.761Z,99.90
2022-10-25T17:56:13.569Z,99.90
2022-10-25T17:58:44.545Z,99.90
2022-10-25T18:01:19.129Z,99.90
2022-10-25T18:03:47.813Z,99.90
2022-10-25T18:06:19.772Z,99.90
2022-10-25T18:08:52.687Z,99.90
2022-10-25T18:11:24.612Z,99.90
2022-10-25T18:16:30.518Z,99.90
2022-10-25T18:19:01.311Z,99.90
2022-10-25T18:21:31.795Z,99.90
2022-10-25T18:24:03.582Z,99.90
2022-10-25T18:29:02.449Z,99.90
2022-10-25T18:34:04.763Z,99.90
2022-10-25T18:36:35.496Z,99.90
2022-10-25T18:41:35.561Z,1.00
2022-10-25T18:44:05.355Z,99.90
2022-10-25T18:46:37.438Z,1.00
2022-10-25T18:49:06.628Z,99.90
2022-10-25T18:51:37.205Z,1.00
2022-10-25T18:54:05.461Z,1.00
2022-10-25T18:56:34.842Z,99.90
2022-10-25T18:59:02.983Z,99.90
2022-10-25T19:01:33.436Z,1.00
2022-10-25T19:04:05.418Z,1.00
2022-10-25T19:06:34.773Z,99.90
2022-10-25T19:09:04.596Z,1.00
2022-10-25T19:11:36.377Z,99.90
2022-10-25T19:16:37.402Z,1.00
2022-10-25T19:19:08.282Z,1.00
2022-10-25T19:21:39.035Z,1.00
2022-10-25T19:26:41.171Z,1.00
2022-10-25T19:31:40.425Z,99.90
2022-10-25T19:34:09.973Z,99.90
2022-10-25T19:36:40.567Z,1.00
2022-10-25T19:39:09.933Z,99.90
2022-10-25T19:41:38.142Z,1.00
2022-10-25T19:46:36.710Z,1.00
2022-10-25T19:49:04.848Z,1.00
2022-10-25T19:51:36.770Z,1.00
2022-10-25T19:54:05.261Z,1.00
2022-10-25T19:56:36.593Z,1.00
2022-10-25T19:59:06.419Z,1.00
2022-10-25T20:01:37.121Z,1.00
2022-10-25T20:04:06.783Z,1.00
2022-10-25T20:06:36.847Z,1.00
2022-10-25T20:09:06.946Z,1.00
2022-10-25T20:14:06.253Z,1.00
2022-10-25T20:16:37.344Z,1.00
2022-10-25T20:21:39.216Z,1.00
2022-10-25T20:24:11.471Z,1.00
2022-10-25T20:26:44.632Z,1.00
2022-10-25T20:29:20.340Z,1.00
2022-10-25T20:34:21.286Z,1.00
2022-10-25T20:36:52.067Z,1.00
2022-10-25T20:39:21.530Z,1.00
2022-10-25T20:46:50.370Z,1.00
2022-10-25T20:49:19.717Z,1.00
2022-10-25T20:51:49.020Z,1.00
2022-10-25T20:54:18.541Z,1.00
2022-10-25T20:56:47.886Z,1.00
2022-10-25T20:59:18.588Z,1.00
2022-10-25T21:01:48.331Z,1.00
2022-10-25T21:04:25.821Z,1.00
2022-10-25T21:06:58.655Z,1.00
2022-10-25T21:12:00.529Z,1.00
2022-10-25T21:14:29.942Z,1.00
2022-10-25T21:16:59.334Z,1.00
2022-10-25T21:19:29.937Z,1.00
2022-10-25T21:24:32.497Z,1.00
2022-10-25T21:27:01.884Z,1.00
2022-10-25T21:34:33.007Z,1.00
2022-10-25T21:42:04.563Z,1.00
2022-10-25T21:47:02.566Z,1.00
2022-10-25T21:49:30.760Z,1.00
2022-10-25T21:52:00.099Z,1.00
2022-10-25T21:54:29.596Z,1.00
2022-10-25T21:57:00.284Z,1.00
2022-10-25T21:59:30.817Z,1.00
2022-10-25T22:04:31.471Z,1.00
2022-10-25T22:07:00.791Z,1.00
2022-10-25T22:09:30.123Z,1.00
2022-10-25T22:12:00.869Z,1.00
2022-10-25T22:14:30.379Z,1.00
2022-10-25T22:16:59.694Z,1.00
2022-10-25T22:19:29.275Z,1.00
2022-10-25T22:21:57.372Z,1.00
2022-10-25T22:24:28.065Z,1.00
2022-10-25T22:29:28.655Z,1.00
2022-10-25T22:31:56.827Z,1.00
2022-10-25T22:34:24.990Z,1.00
2022-10-25T22:36:53.119Z,1.00
2022-10-25T22:44:24.148Z,1.00
2022-10-25T22:46:54.376Z,1.00
2022-10-25T22:54:24.322Z,1.00
2022-10-25T22:56:53.678Z,1.00
2022-10-25T22:59:22.364Z,1.00
2022-10-25T23:01:53.929Z,1.00
2022-10-25T23:04:24.556Z,1.00
2022-10-25T23:09:21.350Z,1.00
2022-10-25T23:11:49.968Z,1.00
2022-10-25T23:16:50.146Z,1.00
2022-10-25T23:19:20.855Z,1.00
2022-10-25T23:21:50.233Z,1.00
2022-10-25T23:24:21.091Z,1.00
2022-10-25T23:26:50.416Z,1.00
2022-10-25T23:29:18.728Z,1.00
2022-10-25T23:31:48.061Z,1.00
2022-10-25T23:34:16.269Z,1.00
2022-10-25T23:36:48.574Z,1.00
2022-10-25T23:39:16.744Z,1.00
2022-10-25T23:41:44.861Z,1.00
2022-10-25T23:44:14.184Z,1.00
2022-10-25T23:46:44.086Z,1.00
2022-10-25T23:54:10.669Z,1.00
2022-10-25T23:56:38.975Z,1.00
2022-10-25T23:59:07.104Z,1.00
